Airfield :







YOU CAN JOIN US ON...

 
LOGIN :

Register | Disclaimer

   EN    FR    IT 

 









Legend :    VFR   Marginal VFR   IFR   Intensive IFR   Very Intensive IFR
Visi :
Ceiling :
>= 8 km
>= 3000ft
5 to 8 km
1000 to 3000 ft
1500m to 5 km
500 to 1000 ft
800 to 1500m
200 to 500 ft
< 800m
< 200 ft
Symbols :   Thunderstorms  Fog  Heavy snow  Heavy precipitations  Wind > 20 kt







- Airport Elevation : 172 ft
- IATA code : YYY


CYYY - Mont Joli

CURRENT METAR :
  • 211900Z 29005KT 30SM SCT062 BKN100 18/15 A2969 RMK SC3AC4 SLP056 DENSITY ALT 900FT

EXPIRED METARs :
  • 211800Z 27005KT 15SM SCT047 OVC100 18/15 A2968 RMK SC3AC5 SLP054 DENSITY ALT 800FT
  • 211700Z 26006KT 15SM FEW020 OVC095 18/14 A2968 RMK SC1AC7 SLP053 DENSITY ALT 900FT

TAF TAF CYYY
Valid from the 21 at 14:00 until the 22 at 02:00 UTC


211339Z 2114/2202 25005KT P6SM FEW030 BKN140
TEMPO 2114/2120 P6SM -SHRA BKN030
FM212000 25010KT P6SM FEW060 SCT120 RMK NXT FCST BY 212000Z
CZUL FIR / North America



MET'MAP, your aeronautical weather chart ! - Copyright ORBIFLY December 2007 - Disclaimer

ORBIFLY MET'MAP TEAM :

Programming & Development : Alexandra Zaïnal
Concept & Development : Baudouin d'Aumeries
Co-Development & Prog : Marc-Olivier Méhu
Technical & hardware support : Manuel Goepfert

Contact : metmap@orbifly.com




SOURCES & CREDITS :

   NOAA